createdAt,value
2022-11-03T07:55:48.374Z,12.13
2022-11-03T07:56:59.037Z,12.08
2022-11-03T07:58:03.853Z,12.01
2022-11-03T07:59:13.752Z,12.07
2022-11-03T08:00:21.763Z,12.07
2022-11-03T08:01:27.213Z,12.09
2022-11-03T08:02:32.444Z,12.14
2022-11-03T08:03:40.006Z,12.09
2022-11-03T08:04:44.122Z,12.10
2022-11-03T08:05:47.275Z,12.11
2022-11-03T08:06:50.949Z,12.15
2022-11-03T08:07:55.175Z,12.14
2022-11-03T08:08:59.526Z,12.01
2022-11-03T08:10:03.137Z,12.06
2022-11-03T08:11:06.595Z,12.13
2022-11-03T08:12:10.031Z,12.10
2022-11-03T08:13:14.371Z,12.11
2022-11-03T08:14:17.667Z,12.11
2022-11-03T08:15:21.810Z,12.15
2022-11-03T08:16:25.253Z,12.18
2022-11-03T08:17:29.633Z,12.20
2022-11-03T08:18:33.160Z,12.17
2022-11-03T08:19:35.818Z,12.17
2022-11-03T08:20:39.337Z,12.05
2022-11-03T08:24:12.191Z,11.89
2022-11-03T08:25:16.020Z,11.92
2022-11-03T08:26:20.395Z,11.97
2022-11-03T08:27:23.951Z,12.05
2022-11-03T08:28:27.371Z,12.11
2022-11-03T08:29:32.953Z,12.14
2022-11-03T08:30:37.158Z,12.21
2022-11-03T08:31:41.647Z,12.25
2022-11-03T08:32:45.158Z,12.20
2022-11-03T08:33:48.320Z,12.31
2022-11-03T08:34:51.638Z,12.44
2022-11-03T08:35:56.490Z,12.52
2022-11-03T08:36:59.379Z,12.55
2022-11-03T08:38:02.674Z,12.55
2022-11-03T08:39:06.075Z,12.59
2022-11-03T08:40:09.477Z,12.66
2022-11-03T08:41:14.804Z,12.69
2022-11-03T08:42:20.036Z,12.69
2022-11-03T08:43:22.206Z,12.72
2022-11-03T08:44:27.154Z,12.74
2022-11-03T08:45:31.988Z,12.67
2022-11-03T08:46:36.464Z,12.69
2022-11-03T08:47:40.061Z,12.69
2022-11-03T08:48:44.411Z,12.66
2022-11-03T08:49:46.585Z,12.68
2022-11-03T08:50:55.891Z,12.58
2022-11-03T08:51:59.976Z,12.36
2022-11-03T08:53:03.460Z,12.36
2022-11-03T08:54:07.054Z,12.34
2022-11-03T08:55:12.325Z,12.24
2022-11-03T08:56:17.086Z,12.19
2022-11-03T08:57:20.910Z,12.20
2022-11-03T08:58:23.985Z,12.17
2022-11-03T08:59:27.480Z,12.23
2022-11-03T09:00:31.006Z,12.37
2022-11-03T09:01:34.469Z,12.23
2022-11-03T09:02:37.447Z,12.28
2022-11-03T09:03:40.657Z,12.33
2022-11-03T09:04:43.836Z,12.31
2022-11-03T09:05:47.686Z,12.39
2022-11-03T09:06:50.769Z,12.42
2022-11-03T09:10:26.387Z,12.57
2022-11-03T09:11:12.535Z,12.56
2022-11-03T09:12:16.661Z,12.64
2022-11-03T09:13:20.172Z,12.71
2022-11-03T09:14:23.674Z,12.74
2022-11-03T09:15:27.074Z,12.59
2022-11-03T09:16:30.463Z,12.55
2022-11-03T09:17:33.139Z,12.57
2022-11-03T09:18:37.593Z,12.58
2022-11-03T09:19:40.865Z,12.53
2022-11-03T09:20:44.066Z,12.59
2022-11-03T09:21:48.301Z,12.56
2022-11-03T09:22:50.982Z,12.56
2022-11-03T09:23:55.414Z,12.55
2022-11-03T09:24:57.781Z,12.59
2022-11-03T09:26:01.287Z,12.57
2022-11-03T09:27:07.621Z,12.57
2022-11-03T09:28:11.132Z,12.54
2022-11-03T09:29:14.727Z,12.50
2022-11-03T09:30:19.619Z,12.42
2022-11-03T09:31:24.128Z,12.32
2022-11-03T09:32:27.852Z,12.41
2022-11-03T09:33:31.358Z,12.45
2022-11-03T09:34:33.807Z,12.53
2022-11-03T09:35:37.416Z,12.54
2022-11-03T09:36:40.644Z,12.57
2022-11-03T09:37:43.706Z,12.47
2022-11-03T09:38:46.887Z,12.46
2022-11-03T09:39:50.547Z,12.49
2022-11-03T09:40:53.940Z,12.59
2022-11-03T09:41:59.294Z,12.57
2022-11-03T09:43:03.006Z,12.49
2022-11-03T09:44:06.304Z,12.57
2022-11-03T09:45:10.685Z,12.61
2022-11-03T09:46:15.453Z,12.71
2022-11-03T09:47:30.081Z,12.71
2022-11-03T09:48:33.589Z,12.77
2022-11-03T09:49:37.301Z,12.55
2022-11-03T09:50:43.940Z,12.49
2022-11-03T09:51:47.654Z,12.36
2022-11-03T09:52:55.651Z,12.40
2022-11-03T09:54:01.128Z,12.33
2022-11-03T09:55:04.948Z,12.33
2022-11-03T09:56:10.021Z,12.44
2022-11-03T09:57:15.597Z,12.53
2022-11-03T09:58:18.283Z,12.52
2022-11-03T09:59:24.398Z,12.53
2022-11-03T10:00:27.846Z,12.55
2022-11-03T10:01:31.358Z,12.53
2022-11-03T10:02:37.201Z,12.64
2022-11-03T10:03:41.770Z,12.56
2022-11-03T10:04:44.952Z,12.56
2022-11-03T10:05:50.451Z,12.59
2022-11-03T10:06:54.051Z,12.51
2022-11-03T10:07:59.554Z,12.26
2022-11-03T10:09:02.941Z,12.30
2022-11-03T10:10:05.818Z,12.31
2022-11-03T10:11:10.124Z,12.21
2022-11-03T10:12:13.778Z,12.14
2022-11-03T10:13:19.781Z,12.28
2022-11-03T10:14:24.570Z,12.48
2022-11-03T10:15:28.473Z,12.50
2022-11-03T10:16:31.801Z,12.46
2022-11-03T10:17:35.076Z,12.35
2022-11-03T10:18:38.585Z,12.20
2022-11-03T10:19:40.810Z,12.16
2022-11-03T10:20:44.430Z,12.14
2022-11-03T10:21:49.074Z,12.23
2022-11-03T10:22:53.734Z,12.23
2022-11-03T10:23:58.533Z,12.30
2022-11-03T10:25:21.849Z,12.36
2022-11-03T10:26:26.704Z,12.36
2022-11-03T10:27:30.657Z,12.13
2022-11-03T10:28:33.120Z,11.92
2022-11-03T10:29:39.680Z,12.00
2022-11-03T10:32:02.916Z,12.19
2022-11-03T10:33:09.976Z,12.37
2022-11-03T10:34:21.007Z,12.26
2022-11-03T10:35:34.817Z,12.37
2022-11-03T10:36:38.351Z,12.57
2022-11-03T10:37:41.658Z,12.56
2022-11-03T10:38:45.622Z,12.45
2022-11-03T10:39:49.701Z,12.47
2022-11-03T10:40:53.025Z,12.42
2022-11-03T10:41:57.906Z,12.60
2022-11-03T10:43:01.482Z,12.46
2022-11-03T10:44:07.065Z,12.77
2022-11-03T10:45:21.748Z,12.87
2022-11-03T10:46:49.129Z,12.79
2022-11-03T10:47:37.360Z,12.89
2022-11-03T10:48:40.946Z,12.78
2022-11-03T10:49:44.446Z,12.71
2022-11-03T10:50:47.731Z,12.59
2022-11-03T10:51:52.976Z,12.69
2022-11-03T10:52:56.830Z,12.82
2022-11-03T10:53:59.083Z,12.72
2022-11-03T10:55:02.079Z,12.47
2022-11-03T10:56:05.997Z,12.63
2022-11-03T10:57:08.655Z,12.33
2022-11-03T10:58:14.112Z,12.35
2022-11-03T10:59:19.573Z,12.24
2022-11-03T11:00:22.124Z,12.23
2022-11-03T11:01:25.919Z,12.25
2022-11-03T11:02:31.447Z,12.08
2022-11-03T11:03:35.852Z,11.98
2022-11-03T11:04:39.191Z,11.87
2022-11-03T11:05:47.510Z,11.93
2022-11-03T11:06:51.480Z,11.93
2022-11-03T11:07:57.238Z,12.01
2022-11-03T11:09:06.167Z,11.92
2022-11-03T11:10:14.481Z,11.87
2022-11-03T11:11:18.359Z,11.95
2022-11-03T11:12:24.582Z,11.77
2022-11-03T11:13:28.292Z,11.84
2022-11-03T11:14:35.129Z,11.89
2022-11-03T11:15:42.381Z,11.93
2022-11-03T11:16:54.040Z,11.70
2022-11-03T11:17:57.922Z,11.73
2022-11-03T11:19:03.546Z,11.69
2022-11-03T11:20:23.895Z,11.77
2022-11-03T11:21:34.817Z,11.83
2022-11-03T11:22:39.042Z,11.55
2022-11-03T11:23:44.046Z,11.55
2022-11-03T11:24:50.863Z,11.69
2022-11-03T11:26:10.359Z,11.76
2022-11-03T11:27:34.005Z,11.47
2022-11-03T11:28:37.835Z,11.27
2022-11-03T11:29:41.575Z,11.24
2022-11-03T11:30:46.204Z,11.37
2022-11-03T11:31:49.916Z,11.29
2022-11-03T11:33:01.671Z,11.25
2022-11-03T11:34:17.910Z,11.39
2022-11-03T11:35:29.991Z,11.37
2022-11-03T11:36:33.379Z,11.46
2022-11-03T11:37:38.998Z,11.28
2022-11-03T11:38:46.668Z,11.41
2022-11-03T11:39:50.382Z,11.38
2022-11-03T11:40:53.781Z,11.39
2022-11-03T11:42:06.843Z,11.53
2022-11-03T11:43:17.213Z,11.65
2022-11-03T11:44:38.753Z,11.75
2022-11-03T11:46:00.433Z,11.80
2022-11-03T11:47:03.217Z,11.79
2022-11-03T11:48:08.175Z,11.90
2022-11-03T11:49:15.347Z,11.91
2022-11-03T11:50:19.926Z,11.81
2022-11-03T11:51:23.428Z,11.60
2022-11-03T11:52:26.277Z,11.64
2022-11-03T11:53:32.041Z,11.67
2022-11-03T11:54:35.260Z,11.75
2022-11-03T11:55:45.461Z,11.74
2022-11-03T11:56:49.838Z,11.72
2022-11-03T11:57:52.991Z,11.61
2022-11-03T11:58:56.501Z,11.57
2022-11-03T11:59:58.951Z,11.59
2022-11-03T12:01:06.000Z,11.66
2022-11-03T12:02:11.076Z,11.56
2022-11-03T12:03:15.770Z,11.55
2022-11-03T12:04:27.289Z,11.52
2022-11-03T12:05:34.301Z,11.37
2022-11-03T12:06:40.044Z,11.42
2022-11-03T12:07:43.760Z,11.42
2022-11-03T12:08:49.769Z,11.60
2022-11-03T12:09:53.472Z,11.74
2022-11-03T12:11:00.054Z,11.44
2022-11-03T12:12:08.906Z,11.40
2022-11-03T12:13:15.747Z,11.38
2022-11-03T12:14:26.617Z,11.27
